createdAt,value
2022-12-03T00:03:14.381Z,23.80
2022-12-03T00:08:18.229Z,19.33
2022-12-03T00:13:21.635Z,24.03
2022-12-03T00:18:25.202Z,18.07
2022-12-03T00:23:28.596Z,17.73
2022-12-03T00:28:32.194Z,18.00
2022-12-03T00:33:35.615Z,18.67
2022-12-03T00:38:39.196Z,11.67
2022-12-03T00:43:42.797Z,13.33
2022-12-03T00:48:46.780Z,15.23
2022-12-03T00:53:50.567Z,11.17
2022-12-03T00:58:53.659Z,15.80
2022-12-03T01:03:57.173Z,24.97
2022-12-03T01:09:00.871Z,14.93
2022-12-03T01:14:15.034Z,14.83
2022-12-03T01:19:20.018Z,16.80
2022-12-03T01:24:23.506Z,16.33
2022-12-03T01:29:27.366Z,13.60
2022-12-03T01:34:30.845Z,20.40
2022-12-03T01:39:34.296Z,19.40
2022-12-03T01:44:38.954Z,16.73
2022-12-03T01:49:46.137Z,13.47
2022-12-03T01:54:56.318Z,19.80
2022-12-03T02:00:01.245Z,17.47
2022-12-03T02:05:16.682Z,18.13
2022-12-03T02:10:33.053Z,12.23
2022-12-03T02:15:39.831Z,19.97
2022-12-03T02:20:54.158Z,20.30
2022-12-03T02:25:57.784Z,19.60
2022-12-03T02:31:01.523Z,18.03
2022-12-03T02:36:05.114Z,15.83
2022-12-03T02:41:12.195Z,18.43
2022-12-03T02:46:15.587Z,19.20
2022-12-03T02:51:19.034Z,16.73
2022-12-03T02:56:27.720Z,18.43
2022-12-03T03:01:31.556Z,17.60
2022-12-03T03:06:35.144Z,16.13
2022-12-03T03:11:38.667Z,17.00
2022-12-03T03:16:42.069Z,15.17
2022-12-03T03:21:45.554Z,14.87
2022-12-03T03:26:50.249Z,13.83
2022-12-03T03:31:54.060Z,18.03
2022-12-03T03:36:57.582Z,19.30
2022-12-03T03:42:00.995Z,15.33
2022-12-03T03:47:05.119Z,18.93
2022-12-03T03:52:11.025Z,20.33
2022-12-03T03:57:14.468Z,18.57
2022-12-03T04:02:23.565Z,18.60
2022-12-03T04:07:27.328Z,20.33
2022-12-03T04:12:49.230Z,20.07
2022-12-03T04:18:11.295Z,22.23
2022-12-03T04:23:14.730Z,21.47
2022-12-03T04:28:36.534Z,16.73
2022-12-03T04:33:58.214Z,20.27
2022-12-03T04:39:01.695Z,20.57
2022-12-03T04:44:23.524Z,19.97
2022-12-03T04:49:27.404Z,21.17
2022-12-03T04:54:31.174Z,21.93
2022-12-03T04:59:35.214Z,21.60
2022-12-03T05:04:50.966Z,19.90
2022-12-03T05:09:54.655Z,20.97
2022-12-03T05:14:58.128Z,18.27
2022-12-03T05:20:20.099Z,19.80
2022-12-03T05:25:23.586Z,21.90
2022-12-03T05:30:27.145Z,17.37
2022-12-03T05:35:30.720Z,20.37
2022-12-03T05:40:33.913Z,18.67
2022-12-03T05:45:39.849Z,22.90
2022-12-03T05:50:45.470Z,17.93
2022-12-03T05:55:48.946Z,19.63
2022-12-03T06:00:52.175Z,22.07
2022-12-03T06:05:55.594Z,17.57
2022-12-03T06:10:58.757Z,19.10
2022-12-03T06:16:03.529Z,14.93
2022-12-03T06:21:07.484Z,18.47
2022-12-03T06:26:12.921Z,17.93
2022-12-03T06:31:16.390Z,17.63
2022-12-03T06:36:23.024Z,17.63
2022-12-03T06:41:26.762Z,22.03
2022-12-03T06:46:31.013Z,18.57
2022-12-03T06:51:34.741Z,17.97
2022-12-03T06:56:44.850Z,19.13
2022-12-03T07:01:49.050Z,20.47
2022-12-03T07:06:52.722Z,18.90
2022-12-03T07:11:56.444Z,18.90
2022-12-03T07:16:59.909Z,18.50
2022-12-03T07:22:04.033Z,20.00
2022-12-03T07:27:08.071Z,17.37
2022-12-03T07:32:11.511Z,18.23
2022-12-03T07:37:18.629Z,18.30
2022-12-03T07:42:25.022Z,19.30
2022-12-03T07:47:28.597Z,21.20
2022-12-03T07:52:32.185Z,20.67
2022-12-03T07:57:35.924Z,19.83
2022-12-03T08:02:39.410Z,20.93
2022-12-03T08:07:43.083Z,21.20
2022-12-03T08:12:47.036Z,19.93
2022-12-03T08:17:59.330Z,21.37
2022-12-03T08:23:08.014Z,21.10
2022-12-03T08:28:23.654Z,18.20
2022-12-03T08:33:36.543Z,21.57
2022-12-03T08:38:40.385Z,22.27
2022-12-03T08:43:44.275Z,18.20
2022-12-03T08:48:49.299Z,19.93
2022-12-03T08:54:05.635Z,22.10
2022-12-03T08:59:21.176Z,19.50
2022-12-03T09:04:39.167Z,21.87
2022-12-03T09:09:44.588Z,22.33
2022-12-03T09:14:51.491Z,16.00
2022-12-03T09:20:06.945Z,19.23
2022-12-03T09:25:17.858Z,19.20
2022-12-03T09:30:22.780Z,23.47
2022-12-03T09:36:06.018Z,23.27
2022-12-03T09:41:21.511Z,18.03
2022-12-03T09:46:46.357Z,16.40
2022-12-03T10:00:02.867Z,22.43
2022-12-03T10:06:50.303Z,23.60
2022-12-03T10:12:46.323Z,21.77
2022-12-03T10:18:38.353Z,21.60
2022-12-03T10:23:45.890Z,21.53
2022-12-03T10:28:52.825Z,24.20
2022-12-03T10:33:59.305Z,22.17
2022-12-03T10:39:09.726Z,19.83
2022-12-03T10:44:16.205Z,22.23
2022-12-03T10:49:20.295Z,24.50
2022-12-03T10:54:27.707Z,23.53
2022-12-03T10:59:34.311Z,23.23
2022-12-03T11:04:38.101Z,25.13
2022-12-03T11:09:45.105Z,21.77
2022-12-03T11:14:51.949Z,26.40
2022-12-03T11:19:55.755Z,26.73
2022-12-03T11:25:24.689Z,16.30
2022-12-03T11:30:54.539Z,17.73
2022-12-03T11:43:18.925Z,24.73
2022-12-03T11:56:04.723Z,22.07
2022-12-03T12:02:02.638Z,25.20
2022-12-03T12:14:32.443Z,23.03
2022-12-03T17:11:43.530Z,27.63
2022-12-03T17:30:31.736Z,30.00
2022-12-03T17:42:36.092Z,28.80
2022-12-03T17:48:37.677Z,30.33
2022-12-03T18:08:37.615Z,30.03
2022-12-03T18:20:05.165Z,32.27
2022-12-03T18:25:11.479Z,30.20
2022-12-03T18:30:22.565Z,26.10
2022-12-03T19:14:41.594Z,33.27
2022-12-03T19:20:14.135Z,30.90
2022-12-03T19:25:31.866Z,30.03
2022-12-03T19:30:48.248Z,30.80
2022-12-03T19:36:13.699Z,30.17
2022-12-03T19:41:20.843Z,55.70
2022-12-03T19:46:27.976Z,31.37
2022-12-03T19:51:40.874Z,32.70
2022-12-03T19:56:54.717Z,29.63
2022-12-03T22:00:36.856Z,32.07
2022-12-03T22:06:40.171Z,32.10
2022-12-03T22:41:41.795Z,29.73
2022-12-03T23:13:28.846Z,32.93
2022-12-03T23:18:52.426Z,32.07
2022-12-03T23:24:13.515Z,34.83
2022-12-03T23:29:46.585Z,30.47
2022-12-03T23:34:50.712Z,31.63
2022-12-03T23:39:56.315Z,33.40
2022-12-03T23:45:05.595Z,30.07
